createdAt,value
2019-06-07T00:00:40.734Z,96.61
2019-06-07T00:01:40.067Z,97.30
2019-06-07T00:02:41.753Z,97.03
2019-06-07T00:03:41.335Z,97.11
2019-06-07T00:04:43.167Z,96.88
2019-06-07T00:04:51.713Z,96.42
2019-06-07T00:05:53.130Z,96.43
2019-06-07T00:06:53.657Z,96.92
2019-06-07T00:07:54.296Z,97.16
2019-06-07T00:08:55.129Z,97.68
2019-06-07T00:09:54.690Z,98.33
2019-06-07T00:10:56.441Z,97.90
2019-06-07T00:11:57.022Z,97.66
2019-06-07T00:12:57.997Z,97.88
2019-06-07T00:13:57.802Z,97.67
2019-06-07T00:14:59.576Z,97.97
2019-06-07T00:16:00.316Z,97.61
2019-06-07T00:17:00.911Z,97.38
2019-06-07T00:18:01.567Z,96.96
2019-06-07T00:19:02.200Z,97.30
2019-06-07T00:20:02.909Z,97.44
2019-06-07T00:21:03.425Z,97.14
2019-06-07T00:22:17.682Z,97.53
2019-06-07T00:23:03.627Z,97.98
2019-06-07T00:24:05.184Z,97.59
2019-06-07T00:25:05.920Z,97.61
2019-06-07T00:26:06.349Z,97.46
2019-06-07T00:27:08.300Z,97.63
2019-06-07T00:28:06.659Z,98.49
2019-06-07T00:29:09.253Z,98.09
2019-06-07T00:30:32.678Z,98.38
2019-06-07T00:31:08.991Z,97.46
2019-06-07T00:32:09.383Z,98.53
2019-06-07T00:33:10.893Z,99.17
2019-06-07T00:34:10.795Z,98.75
2019-06-07T00:35:11.941Z,98.40
2019-06-07T00:36:14.612Z,98.71
2019-06-07T00:37:12.678Z,98.62
2019-06-07T00:38:14.213Z,98.00
2019-06-07T00:39:14.492Z,98.38
2019-06-07T00:40:18.491Z,98.40
2019-06-07T00:41:15.115Z,98.82
2019-06-07T00:42:18.600Z,98.67
2019-06-07T00:43:19.162Z,98.41
2019-06-07T00:44:19.601Z,98.06
2019-06-07T00:45:21.086Z,98.46
2019-06-07T00:46:18.834Z,98.30
2019-06-07T00:47:21.560Z,98.75
2019-06-07T00:48:28.761Z,98.76
2019-06-07T00:49:36.198Z,99.23
2019-06-07T00:50:23.460Z,99.42
2019-06-07T00:51:21.898Z,99.39
2019-06-07T00:53:11.477Z,99.15
2019-06-07T00:53:31.090Z,99.12
2019-06-07T00:54:24.065Z,99.67
2019-06-07T00:55:27.032Z,99.48
2019-06-07T00:56:23.529Z,99.10
2019-06-07T00:57:24.447Z,99.42
2019-06-07T00:58:27.478Z,99.37
2019-06-07T00:59:29.316Z,99.73
2019-06-07T01:00:25.704Z,99.55
2019-06-07T01:01:25.822Z,98.70
2019-06-07T01:02:31.226Z,99.63
2019-06-07T01:03:26.850Z,100.41
2019-06-07T01:04:27.933Z,99.99
2019-06-07T01:05:31.395Z,99.79
2019-06-07T01:06:28.206Z,99.89
2019-06-07T01:07:29.665Z,100.29
2019-06-07T01:08:30.350Z,100.73
2019-06-07T01:09:29.638Z,100.57
2019-06-07T01:10:52.458Z,100.41
2019-06-07T01:11:31.085Z,100.27
2019-06-07T01:12:32.976Z,99.95
2019-06-07T01:13:33.452Z,99.46
2019-06-07T01:14:34.093Z,99.72
2019-06-07T01:15:34.763Z,99.67
2019-06-07T01:16:55.300Z,100.08
2019-06-07T01:17:59.051Z,99.79
2019-06-07T01:18:41.031Z,99.88
2019-06-07T01:19:36.560Z,99.99
2019-06-07T01:20:37.950Z,100.49
2019-06-07T01:21:38.799Z,100.19
2019-06-07T01:21:48.338Z,100.00
2019-06-07T01:22:49.776Z,100.00
2019-06-07T01:24:11.866Z,99.42
2019-06-07T01:24:49.864Z,99.43
2019-06-07T01:25:51.373Z,98.98
2019-06-07T01:26:50.917Z,99.25
2019-06-07T01:27:51.328Z,99.11
2019-06-07T01:28:53.139Z,99.13
2019-06-07T01:29:53.620Z,98.91
2019-06-07T01:30:54.143Z,98.53
2019-06-07T01:31:54.839Z,97.54
2019-06-07T01:32:55.344Z,97.84
2019-06-07T01:33:54.818Z,98.70
2019-06-07T01:34:56.531Z,98.81
2019-06-07T01:35:56.998Z,98.63
2019-06-07T01:36:57.510Z,98.43
2019-06-07T01:37:58.158Z,97.87
2019-06-07T01:38:58.657Z,97.77
2019-06-07T01:39:59.335Z,97.83
2019-06-07T01:40:59.801Z,97.80
2019-06-07T01:42:00.347Z,97.87
2019-06-07T01:43:00.863Z,98.18
2019-06-07T01:44:01.335Z,97.66
2019-06-07T01:45:01.788Z,98.60
2019-06-07T01:46:01.873Z,98.22
2019-06-07T01:47:02.548Z,98.34
2019-06-07T01:48:03.462Z,98.71
2019-06-07T01:49:04.069Z,98.67
2019-06-07T01:50:04.617Z,98.54
2019-06-07T01:51:05.437Z,98.73
2019-06-07T01:52:04.830Z,98.94
2019-06-07T01:53:06.741Z,99.32
2019-06-07T01:54:49.437Z,98.91
2019-06-07T01:55:06.720Z,98.79
2019-06-07T01:56:08.301Z,98.39
2019-06-07T01:57:30.429Z,98.68
2019-06-07T01:58:08.430Z,99.04
2019-06-07T01:59:10.170Z,98.36
2019-06-07T02:00:11.087Z,98.32
2019-06-07T02:01:11.640Z,98.16
2019-06-07T02:02:12.245Z,98.32
2019-06-07T02:03:12.966Z,98.67
2019-06-07T02:04:13.829Z,98.30
2019-06-07T02:05:14.613Z,97.81
2019-06-07T02:06:14.696Z,97.79
2019-06-07T02:07:15.334Z,97.86
2019-06-07T02:08:14.802Z,97.87
2019-06-07T02:09:16.457Z,97.99
2019-06-07T02:10:19.443Z,97.96
2019-06-07T02:11:18.083Z,98.44
2019-06-07T02:12:28.118Z,97.91
2019-06-07T02:13:18.772Z,98.09
2019-06-07T02:14:19.606Z,97.95
2019-06-07T02:15:21.711Z,98.43
2019-06-07T02:16:19.856Z,98.40
2019-06-07T02:17:24.004Z,98.07
2019-06-07T02:18:22.964Z,97.78
2019-06-07T02:19:22.017Z,97.15
2019-06-07T02:20:25.774Z,96.87
2019-06-07T02:21:25.732Z,96.42
2019-06-07T02:21:34.379Z,97.14
2019-06-07T02:22:32.839Z,97.18
2019-06-07T02:23:34.464Z,97.33
2019-06-07T02:24:36.213Z,96.67
2019-06-07T02:25:42.236Z,97.57
2019-06-07T02:26:35.107Z,97.70
2019-06-07T02:27:36.641Z,97.87
2019-06-07T02:28:45.309Z,97.95
2019-06-07T02:29:37.066Z,97.69
2019-06-07T02:30:47.268Z,98.19
2019-06-07T02:31:39.814Z,98.46
2019-06-07T02:32:38.173Z,99.02
2019-06-07T02:33:40.543Z,99.07
2019-06-07T02:34:39.969Z,99.58
2019-06-07T02:35:41.241Z,99.76
2019-06-07T02:36:41.737Z,99.19
2019-06-07T02:37:41.329Z,99.38
2019-06-07T02:38:42.562Z,99.17
2019-06-07T02:39:42.519Z,98.89
2019-06-07T02:40:42.065Z,99.13
2019-06-07T02:41:43.598Z,98.76
2019-06-07T02:42:43.879Z,99.02
2019-06-07T02:43:44.408Z,99.06
2019-06-07T02:44:44.895Z,99.11
2019-06-07T02:45:45.715Z,99.04
2019-06-07T02:46:49.456Z,99.73
2019-06-07T02:47:45.442Z,100.34
2019-06-07T02:48:47.014Z,100.46
2019-06-07T02:49:47.459Z,100.50
2019-06-07T02:50:47.842Z,99.67
2019-06-07T02:51:48.397Z,99.70
2019-06-07T02:52:49.205Z,100.43
2019-06-07T02:53:48.513Z,100.59
2019-06-07T02:54:49.093Z,100.09
2019-06-07T02:56:34.168Z,99.81
2019-06-07T02:56:57.803Z,100.62
2019-06-07T02:57:51.035Z,100.13
2019-06-07T02:58:52.605Z,100.70
2019-06-07T03:00:06.493Z,100.93
2019-06-07T03:01:06.736Z,101.25
2019-06-07T03:01:53.265Z,101.57
2019-06-07T03:02:54.752Z,101.26
2019-06-07T03:03:55.576Z,101.07
2019-06-07T03:04:57.084Z,101.61
2019-06-07T03:05:56.661Z,101.73
2019-06-07T03:06:57.378Z,101.28
2019-06-07T03:07:57.852Z,101.52
2019-06-07T03:08:58.321Z,101.26
2019-06-07T03:09:58.800Z,101.13
2019-06-07T03:10:58.363Z,101.50
2019-06-07T03:11:59.794Z,101.21
2019-06-07T03:13:00.514Z,101.53
2019-06-07T03:14:01.111Z,102.01
2019-06-07T03:15:01.718Z,102.08
2019-06-07T03:16:02.287Z,102.77
2019-06-07T03:17:03.113Z,103.01
2019-06-07T03:18:03.658Z,102.63
2019-06-07T03:19:04.152Z,102.81
2019-06-07T03:19:12.700Z,102.47
2019-06-07T03:20:14.092Z,102.47
2019-06-07T03:21:13.490Z,102.54
2019-06-07T03:22:15.135Z,102.36
2019-06-07T03:23:15.582Z,102.30
2019-06-07T03:24:16.131Z,102.12
2019-06-07T03:25:15.689Z,102.26
2019-06-07T03:26:17.241Z,102.36
2019-06-07T03:27:41.342Z,102.82
2019-06-07T03:28:17.294Z,102.51
2019-06-07T03:29:19.036Z,101.89
2019-06-07T03:30:46.221Z,102.12
2019-06-07T03:31:19.250Z,102.01
2019-06-07T03:32:20.818Z,101.96
2019-06-07T03:33:21.475Z,102.48
2019-06-07T03:34:21.993Z,102.95
2019-06-07T03:35:22.655Z,102.74
2019-06-07T03:36:25.799Z,102.34
2019-06-07T03:37:22.215Z,102.14
2019-06-07T03:38:23.947Z,102.44
2019-06-07T03:39:25.290Z,102.50
2019-06-07T03:40:23.869Z,102.07
2019-06-07T03:41:25.360Z,101.72
2019-06-07T03:42:26.650Z,101.94
2019-06-07T03:43:25.116Z,102.11
2019-06-07T03:44:28.629Z,101.75
2019-06-07T03:45:28.517Z,101.54
2019-06-07T03:46:27.298Z,101.85
2019-06-07T03:47:29.188Z,101.41
2019-06-07T03:48:28.866Z,101.15
2019-06-07T03:49:30.739Z,100.38
2019-06-07T03:50:31.950Z,101.13
2019-06-07T03:51:30.647Z,101.28
2019-06-07T03:52:30.209Z,101.13
2019-06-07T03:53:31.143Z,100.95
2019-06-07T03:54:32.077Z,100.31
2019-06-07T03:55:37.743Z,99.87
2019-06-07T03:56:33.764Z,99.67
2019-06-07T03:58:27.506Z,99.41
2019-06-07T03:58:45.678Z,98.97
2019-06-07T03:59:37.425Z,99.19
2019-06-07T04:00:36.750Z,98.35
2019-06-07T04:01:37.675Z,98.60
2019-06-07T04:02:38.602Z,98.11
2019-06-07T04:03:43.576Z,98.09
2019-06-07T04:04:38.505Z,97.72
2019-06-07T04:05:41.222Z,98.00
2019-06-07T04:06:41.535Z,98.24
2019-06-07T04:07:43.719Z,98.39
2019-06-07T04:08:41.950Z,97.71
2019-06-07T04:09:42.657Z,97.90
2019-06-07T04:10:53.390Z,98.50
2019-06-07T04:11:40.959Z,98.40
2019-06-07T04:12:44.016Z,98.36
2019-06-07T04:13:43.122Z,98.35
2019-06-07T04:14:42.920Z,97.99
2019-06-07T04:15:42.699Z,97.89
2019-06-07T04:16:44.801Z,98.32
2019-06-07T04:18:00.950Z,98.73
2019-06-07T04:18:44.520Z,98.75
2019-06-07T04:19:46.190Z,98.42
2019-06-07T04:20:46.838Z,98.73
2019-06-07T04:21:47.343Z,98.40
2019-06-07T04:22:47.861Z,99.38
2019-06-07T04:23:48.740Z,99.15
2019-06-07T04:24:49.485Z,98.96
2019-06-07T04:25:50.047Z,98.56
2019-06-07T04:26:50.689Z,98.77
2019-06-07T04:27:51.592Z,99.15
2019-06-07T04:29:31.507Z,99.91
2019-06-07T04:30:06.666Z,99.67
2019-06-07T04:30:52.613Z,100.03
2019-06-07T04:31:54.362Z,99.89
2019-06-07T04:32:54.879Z,99.61
2019-06-07T04:33:55.363Z,99.70
2019-06-07T04:34:55.973Z,99.65
2019-06-07T04:35:55.389Z,99.42
2019-06-07T04:36:59.619Z,99.90
2019-06-07T04:37:56.653Z,99.93
2019-06-07T04:38:58.230Z,99.51
2019-06-07T04:39:06.767Z,99.40
2019-06-07T04:40:08.182Z,99.32
2019-06-07T04:41:08.650Z,99.11
2019-06-07T04:42:09.286Z,99.04
2019-06-07T04:43:09.866Z,98.47
2019-06-07T04:44:10.354Z,98.39
2019-06-07T04:45:32.587Z,98.35
2019-06-07T04:46:10.803Z,97.27
2019-06-07T04:47:12.481Z,96.98
2019-06-07T04:48:13.041Z,96.43
2019-06-07T04:49:13.758Z,96.34
2019-06-07T04:50:14.373Z,95.52
2019-06-07T04:51:15.414Z,94.29
2019-06-07T04:52:14.911Z,94.31
2019-06-07T04:53:16.669Z,93.53
2019-06-07T04:54:17.252Z,92.82
2019-06-07T04:55:17.745Z,92.11
2019-06-07T04:56:18.268Z,92.25
2019-06-07T04:57:19.050Z,92.20
2019-06-07T04:58:19.522Z,92.29
2019-06-07T05:00:01.141Z,88.54
2019-06-07T05:00:48.483Z,86.92
2019-06-07T05:01:27.471Z,86.44
2019-06-07T05:02:20.990Z,84.35
2019-06-07T05:03:22.545Z,83.75
2019-06-07T05:04:23.057Z,81.96
2019-06-07T05:05:23.856Z,81.70
2019-06-07T05:06:24.025Z,80.12
2019-06-07T05:07:24.479Z,77.79
2019-06-07T05:08:28.485Z,77.20
2019-06-07T05:09:25.004Z,75.10
2019-06-07T05:10:26.738Z,73.71
2019-06-07T05:11:27.256Z,72.02
2019-06-07T05:12:27.729Z,71.62
2019-06-07T05:13:28.004Z,70.24
2019-06-07T05:14:31.167Z,69.32
2019-06-07T05:15:29.587Z,68.44
2019-06-07T05:16:30.493Z,67.86
2019-06-07T05:17:31.279Z,67.98
2019-06-07T05:18:30.269Z,67.58
2019-06-07T05:19:35.186Z,65.25
2019-06-07T05:20:33.630Z,64.12
2019-06-07T05:21:58.342Z,62.92
2019-06-07T05:22:34.934Z,62.99
2019-06-07T05:24:35.591Z,61.67
2019-06-07T05:25:35.695Z,59.68
2019-06-07T05:26:38.523Z,59.44
2019-06-07T05:27:37.914Z,59.42
2019-06-07T05:28:37.852Z,58.58
2019-06-07T05:29:38.365Z,59.54
2019-06-07T05:31:02.005Z,57.38
2019-06-07T05:31:39.753Z,58.89
2019-06-07T05:32:43.759Z,59.24
2019-06-07T05:33:40.593Z,57.81
2019-06-07T05:34:42.430Z,57.15
2019-06-07T05:35:43.179Z,58.49
2019-06-07T05:36:44.328Z,56.97
2019-06-07T05:37:45.485Z,56.71
2019-06-07T05:38:44.719Z,57.00
2019-06-07T05:39:45.538Z,56.80
2019-06-07T05:40:47.919Z,56.88
2019-06-07T05:41:44.447Z,56.68
2019-06-07T05:42:46.607Z,56.45
2019-06-07T05:43:51.492Z,55.03
2019-06-07T05:44:45.817Z,54.76
2019-06-07T05:45:47.059Z,53.87
2019-06-07T05:46:47.055Z,52.92
2019-06-07T05:47:50.680Z,53.12
2019-06-07T05:48:46.578Z,52.90
2019-06-07T05:49:48.095Z,53.74
2019-06-07T05:50:56.587Z,54.04
2019-06-07T05:51:48.208Z,51.90
2019-06-07T05:52:49.807Z,52.12
2019-06-07T05:52:58.377Z,52.07
2019-06-07T05:54:00.169Z,51.96
2019-06-07T05:55:00.649Z,52.09
2019-06-07T05:56:01.117Z,52.90
2019-06-07T05:57:01.619Z,52.87
2019-06-07T05:58:02.074Z,53.39
2019-06-07T05:59:02.557Z,52.20
2019-06-07T06:00:03.425Z,52.43
2019-06-07T06:01:41.589Z,52.79
2019-06-07T06:02:21.453Z,51.65
2019-06-07T06:03:05.978Z,52.43
2019-06-07T06:04:04.605Z,51.61
2019-06-07T06:05:06.082Z,52.75
2019-06-07T06:06:06.510Z,52.56
2019-06-07T06:07:07.218Z,52.99
2019-06-07T06:08:07.808Z,52.67
2019-06-07T06:09:13.689Z,52.57
2019-06-07T06:10:07.926Z,53.16
2019-06-07T06:11:09.749Z,52.29
2019-06-07T06:12:10.317Z,52.63
2019-06-07T06:13:11.103Z,52.99
2019-06-07T06:14:11.526Z,53.53
2019-06-07T06:15:12.158Z,53.13
2019-06-07T06:16:12.628Z,53.27
2019-06-07T06:17:13.133Z,52.46
2019-06-07T06:18:13.572Z,52.58
2019-06-07T06:19:14.354Z,53.41
2019-06-07T06:20:15.136Z,53.61
2019-06-07T06:21:19.116Z,55.29
2019-06-07T06:22:15.168Z,53.45
2019-06-07T06:23:17.115Z,53.87
2019-06-07T06:24:17.598Z,54.08
2019-06-07T06:25:34.447Z,54.15
2019-06-07T06:26:18.266Z,53.12
2019-06-07T06:28:02.511Z,52.85
2019-06-07T06:28:19.255Z,52.54
2019-06-07T06:29:20.745Z,51.84
2019-06-07T06:30:21.315Z,51.68
2019-06-07T06:31:22.030Z,51.57
2019-06-07T06:33:33.645Z,51.50
2019-06-07T06:34:23.260Z,50.03
2019-06-07T06:35:25.124Z,49.45
2019-06-07T06:36:25.727Z,49.27
2019-06-07T06:37:26.507Z,49.28
2019-06-07T06:38:27.276Z,49.96
2019-06-07T06:39:27.903Z,48.55
2019-06-07T06:40:28.619Z,48.98
2019-06-07T06:41:29.114Z,49.61
2019-06-07T06:42:29.606Z,49.10
2019-06-07T06:43:29.887Z,49.08
2019-06-07T06:44:30.414Z,48.73
2019-06-07T06:44:41.812Z,48.74
2019-06-07T06:45:40.136Z,48.89
2019-06-07T06:46:44.822Z,48.96
2019-06-07T06:47:40.807Z,48.16
2019-06-07T06:48:45.489Z,48.42
2019-06-07T06:49:43.375Z,48.04
2019-06-07T06:50:44.413Z,49.19
2019-06-07T06:51:47.016Z,49.12
2019-06-07T06:52:45.466Z,48.60
2019-06-07T06:53:44.376Z,49.09
2019-06-07T06:54:48.780Z,50.04
2019-06-07T06:55:48.423Z,51.02
2019-06-07T06:56:46.998Z,51.67
2019-06-07T06:57:46.478Z,50.83
2019-06-07T06:59:26.940Z,51.29
2019-06-07T06:59:50.452Z,50.94
2019-06-07T07:00:58.914Z,50.60
2019-06-07T07:01:50.566Z,50.50
2019-06-07T07:03:39.574Z,51.24
2019-06-07T07:04:09.705Z,51.59
2019-06-07T07:04:53.537Z,50.27
2019-06-07T07:05:54.237Z,49.69
2019-06-07T07:06:53.381Z,50.19
2019-06-07T07:07:52.995Z,50.45
2019-06-07T07:08:53.428Z,49.84
2019-06-07T07:09:58.945Z,50.52
2019-06-07T07:10:54.989Z,50.70
2019-06-07T07:12:10.248Z,52.59
2019-06-07T07:12:54.528Z,52.05
2019-06-07T07:13:57.060Z,53.14
2019-06-07T07:14:56.212Z,53.11
2019-06-07T07:15:58.367Z,54.24
2019-06-07T07:16:56.844Z,54.74
2019-06-07T07:18:07.793Z,56.36
2019-06-07T07:18:57.444Z,55.48
2019-06-07T07:19:59.207Z,56.31
2019-06-07T07:20:59.765Z,55.91
2019-06-07T07:22:00.292Z,57.20
2019-06-07T07:23:00.666Z,57.11
2019-06-07T07:24:20.435Z,57.09
2019-06-07T07:25:00.391Z,57.32
2019-06-07T07:26:01.808Z,58.23
2019-06-07T07:27:02.253Z,57.81
2019-06-07T07:28:02.650Z,58.09
2019-06-07T07:29:03.001Z,58.16
2019-06-07T07:30:35.637Z,57.83
2019-06-07T07:31:03.098Z,58.87
2019-06-07T07:32:04.768Z,58.87
2019-06-07T07:33:06.613Z,58.94
2019-06-07T07:34:33.992Z,59.93
2019-06-07T07:35:05.957Z,59.70
2019-06-07T07:36:28.195Z,59.90
2019-06-07T07:37:07.420Z,60.34
2019-06-07T07:38:09.018Z,60.91
2019-06-07T07:39:08.498Z,61.40
2019-06-07T07:40:55.578Z,61.82
2019-06-07T07:41:15.436Z,61.63
2019-06-07T07:42:20.895Z,62.02
2019-06-07T07:43:10.616Z,62.32
2019-06-07T07:44:12.152Z,62.94
2019-06-07T07:45:12.574Z,62.88
2019-06-07T07:46:29.204Z,62.56
2019-06-07T07:47:13.033Z,61.95
2019-06-07T07:48:18.077Z,62.29
2019-06-07T07:49:14.064Z,63.00
2019-06-07T07:50:15.673Z,62.96
2019-06-07T07:51:16.191Z,62.89
2019-06-07T07:52:17.061Z,63.57
2019-06-07T07:53:17.877Z,63.01
2019-06-07T07:54:18.314Z,63.37
2019-06-07T07:55:18.803Z,64.10
2019-06-07T07:56:18.330Z,63.69
2019-06-07T07:57:19.766Z,64.01
2019-06-07T07:58:20.218Z,64.48
2019-06-07T07:59:20.783Z,63.93
2019-06-07T08:01:20.928Z,63.90
2019-06-07T08:02:22.458Z,64.11
2019-06-07T08:03:22.142Z,64.08
2019-06-07T08:03:30.711Z,64.46
2019-06-07T08:05:13.045Z,64.48
2019-06-07T08:05:42.349Z,65.33
2019-06-07T08:06:32.711Z,65.59
2019-06-07T08:07:34.288Z,65.37
2019-06-07T08:08:33.751Z,65.02
2019-06-07T08:09:35.272Z,65.03
2019-06-07T08:10:35.850Z,64.94
2019-06-07T08:11:36.353Z,64.70
2019-06-07T08:12:55.458Z,64.50
2019-06-07T08:13:37.421Z,64.19
2019-06-07T08:14:37.332Z,63.76
2019-06-07T08:15:38.839Z,63.27
2019-06-07T08:16:39.627Z,63.24
2019-06-07T08:17:40.236Z,63.61
2019-06-07T08:18:40.762Z,63.54
2019-06-07T08:19:41.336Z,63.88
2019-06-07T08:21:01.512Z,63.52
2019-06-07T08:21:41.636Z,63.30
2019-06-07T08:22:43.219Z,63.10
2019-06-07T08:23:43.623Z,63.29
2019-06-07T08:24:44.251Z,62.61
2019-06-07T08:25:44.798Z,63.02
2019-06-07T08:27:06.856Z,62.21
2019-06-07T08:27:45.046Z,62.14
2019-06-07T08:28:48.423Z,62.29
2019-06-07T08:30:03.738Z,60.71
2019-06-07T08:30:50.676Z,60.12
2019-06-07T08:31:48.242Z,60.21
2019-06-07T08:32:52.638Z,59.51
2019-06-07T08:33:49.887Z,59.40
2019-06-07T08:34:52.433Z,59.06
2019-06-07T08:36:19.460Z,58.19
2019-06-07T08:36:51.657Z,59.06
2019-06-07T08:38:52.899Z,58.61
2019-06-07T08:39:52.814Z,58.48
2019-06-07T08:40:56.868Z,57.64
2019-06-07T08:42:02.106Z,57.42
2019-06-07T08:43:11.345Z,57.60
2019-06-07T08:43:56.484Z,56.92
2019-06-07T08:45:01.264Z,55.86
2019-06-07T08:46:01.156Z,55.91
2019-06-07T08:47:15.975Z,55.85
2019-06-07T08:47:58.102Z,56.87
2019-06-07T08:49:02.203Z,56.38
2019-06-07T08:50:04.375Z,56.76
2019-06-07T08:51:06.526Z,55.83
2019-06-07T08:52:09.967Z,55.46
2019-06-07T08:53:05.104Z,56.40
2019-06-07T08:54:18.710Z,56.57
2019-06-07T08:55:04.752Z,57.05
2019-06-07T08:56:06.984Z,56.29
2019-06-07T08:57:20.094Z,55.04
2019-06-07T08:58:08.203Z,55.73
2019-06-07T08:59:10.805Z,55.17
2019-06-07T09:00:15.960Z,54.83
2019-06-07T09:01:07.847Z,55.65
2019-06-07T09:02:14.687Z,56.46
2019-06-07T09:03:07.155Z,57.09
2019-06-07T09:04:09.956Z,57.21
2019-06-07T09:05:11.684Z,56.98
2019-06-07T09:06:08.935Z,56.13
2019-06-07T09:07:18.834Z,57.29
2019-06-07T09:08:28.723Z,55.90
2019-06-07T09:09:07.531Z,55.89
2019-06-07T09:10:14.411Z,55.01
2019-06-07T09:11:11.177Z,54.42
2019-06-07T09:12:11.320Z,54.08
2019-06-07T09:13:11.659Z,55.17
2019-06-07T09:14:10.176Z,55.10
2019-06-07T09:15:21.285Z,56.16
2019-06-07T09:16:11.763Z,54.91
2019-06-07T09:17:13.068Z,55.54
2019-06-07T09:19:13.772Z,55.00
2019-06-07T09:20:35.075Z,55.31
2019-06-07T09:21:14.664Z,55.61
2019-06-07T09:22:16.303Z,54.41
2019-06-07T09:23:17.269Z,54.78
2019-06-07T09:24:15.530Z,55.19
2019-06-07T09:25:21.141Z,55.97
2019-06-07T09:26:18.874Z,56.26
2019-06-07T09:27:17.190Z,55.99
2019-06-07T09:28:20.468Z,54.70
2019-06-07T09:29:18.762Z,55.57
2019-06-07T09:30:20.230Z,55.20
2019-06-07T09:31:20.721Z,55.40
2019-06-07T09:32:21.304Z,55.85
2019-06-07T09:32:29.867Z,56.01
2019-06-07T09:33:31.748Z,55.88
2019-06-07T09:34:32.362Z,55.67
2019-06-07T09:35:33.293Z,55.88
2019-06-07T09:36:33.969Z,55.44
2019-06-07T09:38:16.122Z,55.00
2019-06-07T09:38:33.913Z,55.02
2019-06-07T09:39:35.351Z,55.12
2019-06-07T09:40:35.732Z,54.49
2019-06-07T09:41:47.512Z,55.21
2019-06-07T09:42:35.743Z,55.03
2019-06-07T09:44:36.621Z,55.21
2019-06-07T09:45:38.153Z,54.18
2019-06-07T09:46:38.817Z,54.61
2019-06-07T09:47:37.933Z,54.32
2019-06-07T09:49:38.897Z,53.85
2019-06-07T09:50:40.379Z,54.43
2019-06-07T09:51:41.003Z,55.39
2019-06-07T09:52:57.765Z,55.55
2019-06-07T09:53:41.030Z,55.24
2019-06-07T09:55:06.071Z,55.43
2019-06-07T09:55:42.498Z,54.66
2019-06-07T09:56:43.891Z,55.73
2019-06-07T09:57:44.789Z,56.18
2019-06-07T09:58:51.826Z,56.11
2019-06-07T09:59:44.823Z,54.65
2019-06-07T10:00:46.236Z,55.23
2019-06-07T10:01:46.740Z,54.53
2019-06-07T10:02:47.224Z,54.39
2019-06-07T10:03:46.835Z,53.91
2019-06-07T10:04:48.659Z,54.85
2019-06-07T10:05:49.477Z,55.35
2019-06-07T10:06:49.979Z,55.34
2019-06-07T10:08:02.495Z,56.34
2019-06-07T10:10:12.611Z,55.47
2019-06-07T10:10:51.239Z,54.83
2019-06-07T10:11:52.952Z,54.93
2019-06-07T10:12:52.955Z,54.96
2019-06-07T10:13:53.502Z,56.27
2019-06-07T10:14:54.018Z,55.41
2019-06-07T10:15:54.868Z,55.72
2019-06-07T10:16:55.364Z,56.56
2019-06-07T10:17:55.783Z,56.61
2019-06-07T10:18:56.030Z,54.15
2019-06-07T10:19:56.657Z,54.33
2019-06-07T10:20:57.194Z,54.95
2019-06-07T10:21:59.123Z,54.00
2019-06-07T10:22:57.508Z,53.78
2019-06-07T10:23:59.296Z,54.22
2019-06-07T10:24:59.695Z,55.16
2019-06-07T10:25:59.662Z,54.79
2019-06-07T10:27:01.721Z,55.77
2019-06-07T10:28:01.860Z,55.53
2019-06-07T10:29:01.909Z,54.75
2019-06-07T10:30:02.721Z,54.44
2019-06-07T10:31:04.503Z,54.97
2019-06-07T10:32:04.493Z,55.07
2019-06-07T10:33:05.049Z,55.11
2019-06-07T10:33:13.706Z,55.80
2019-06-07T10:34:14.737Z,55.81
2019-06-07T10:35:16.521Z,56.46
2019-06-07T10:36:14.868Z,55.70
2019-06-07T10:37:16.380Z,55.25
2019-06-07T10:38:16.923Z,54.54
2019-06-07T10:39:17.643Z,54.59
2019-06-07T10:40:18.275Z,56.49
2019-06-07T10:41:18.733Z,56.59
2019-06-07T10:42:19.619Z,56.42
2019-06-07T10:43:20.148Z,56.33
2019-06-07T10:44:19.874Z,56.60
2019-06-07T10:45:21.302Z,56.44
2019-06-07T10:46:21.938Z,54.79
2019-06-07T10:47:22.736Z,55.63
2019-06-07T10:48:25.096Z,56.68
2019-06-07T10:49:22.836Z,55.45
2019-06-07T10:50:24.372Z,56.05
2019-06-07T10:51:24.917Z,56.88
2019-06-07T10:52:25.351Z,57.64
2019-06-07T10:53:26.084Z,57.21
2019-06-07T10:54:30.530Z,56.98
2019-06-07T10:55:26.475Z,56.69
2019-06-07T10:56:27.949Z,57.34
2019-06-07T10:57:28.492Z,57.40
2019-06-07T10:58:28.961Z,57.54
2019-06-07T10:59:29.720Z,56.95
2019-06-07T11:00:30.197Z,55.97
2019-06-07T11:01:30.751Z,56.17
2019-06-07T11:02:30.421Z,56.45
2019-06-07T11:03:31.998Z,56.26
2019-06-07T11:04:32.517Z,55.77
2019-06-07T11:05:32.413Z,55.92
2019-06-07T11:06:34.140Z,56.02
2019-06-07T11:07:34.849Z,56.00
2019-06-07T11:08:35.485Z,56.21
2019-06-07T11:09:35.976Z,57.02
2019-06-07T11:10:36.469Z,57.41
2019-06-07T11:11:37.038Z,56.88
2019-06-07T11:12:37.457Z,56.96
2019-06-07T11:13:38.009Z,57.43
2019-06-07T11:14:38.605Z,56.47
2019-06-07T11:15:39.079Z,57.15
2019-06-07T11:16:38.677Z,57.23
2019-06-07T11:17:39.901Z,58.71
2019-06-07T11:18:40.379Z,58.72
2019-06-07T11:19:41.012Z,59.61
2019-06-07T11:20:41.516Z,60.08
2019-06-07T11:21:42.019Z,58.24
2019-06-07T11:22:41.512Z,58.38
2019-06-07T11:22:50.588Z,59.96
2019-06-07T11:23:52.277Z,60.02
2019-06-07T11:24:51.682Z,59.49
2019-06-07T11:25:52.073Z,59.37
2019-06-07T11:26:53.914Z,59.51
2019-06-07T11:27:54.500Z,59.34
2019-06-07T11:28:54.521Z,60.10
2019-06-07T11:29:55.325Z,60.25
2019-06-07T11:30:56.134Z,61.44
2019-06-07T11:31:56.648Z,61.08
2019-06-07T11:32:57.158Z,61.09
2019-06-07T11:33:57.697Z,61.29
2019-06-07T11:34:58.225Z,61.09
2019-06-07T11:35:58.960Z,61.27
2019-06-07T11:36:59.728Z,61.07
2019-06-07T11:38:00.445Z,60.60
2019-06-07T11:39:01.039Z,60.55
2019-06-07T11:40:01.829Z,61.20
2019-06-07T11:41:00.992Z,61.14
2019-06-07T11:42:02.494Z,61.05
2019-06-07T11:43:03.136Z,61.04
2019-06-07T11:44:02.533Z,61.55
2019-06-07T11:45:02.951Z,62.01
2019-06-07T11:46:04.496Z,61.15
2019-06-07T11:47:06.387Z,61.57
2019-06-07T11:48:04.963Z,61.49
2019-06-07T11:49:06.477Z,61.38
2019-06-07T11:50:07.264Z,61.29
2019-06-07T11:51:06.822Z,61.86
2019-06-07T11:52:07.395Z,62.09
2019-06-07T11:53:08.589Z,62.00
2019-06-07T11:54:09.630Z,61.97
2019-06-07T11:55:09.838Z,62.19
2019-06-07T11:56:10.339Z,61.73
2019-06-07T11:57:10.920Z,61.58
2019-06-07T11:58:16.119Z,61.65
2019-06-07T11:59:11.751Z,61.40
2019-06-07T12:00:14.144Z,61.27
2019-06-07T12:01:14.962Z,61.03
2019-06-07T12:02:13.760Z,61.83
2019-06-07T12:03:15.960Z,62.54
2019-06-07T12:04:31.054Z,62.96
2019-06-07T12:05:18.391Z,62.40
2019-06-07T12:06:16.495Z,62.11
2019-06-07T12:07:17.725Z,62.35
2019-06-07T12:08:18.224Z,62.21
2019-06-07T12:09:18.826Z,62.07
2019-06-07T12:10:22.678Z,62.24
2019-06-07T12:11:18.969Z,61.86
2019-06-07T12:12:20.775Z,61.54
2019-06-07T12:13:20.493Z,61.89
2019-06-07T12:14:21.970Z,62.34
2019-06-07T12:15:22.687Z,62.33
2019-06-07T12:16:22.377Z,63.36
2019-06-07T12:17:23.788Z,62.87
2019-06-07T12:18:24.227Z,62.34
2019-06-07T12:19:24.916Z,62.11
2019-06-07T12:20:25.400Z,61.96
2019-06-07T12:21:25.037Z,61.86
2019-06-07T12:22:26.579Z,61.43
2019-06-07T12:23:27.146Z,61.81
2019-06-07T12:24:27.619Z,61.70
2019-06-07T12:25:27.624Z,61.53
2019-06-07T12:26:28.166Z,60.91
2019-06-07T12:27:28.295Z,60.53
2019-06-07T12:27:37.337Z,59.96
2019-06-07T12:28:38.977Z,60.03
2019-06-07T12:29:39.609Z,59.64
2019-06-07T12:30:40.225Z,60.03
2019-06-07T12:31:39.794Z,60.95
2019-06-07T12:32:41.253Z,61.08
2019-06-07T12:33:41.710Z,61.08
2019-06-07T12:34:42.205Z,61.10
2019-06-07T12:35:42.762Z,60.37
2019-06-07T12:36:42.413Z,60.64
2019-06-07T12:37:45.001Z,60.34
2019-06-07T12:38:43.720Z,60.76
2019-06-07T12:39:45.287Z,60.72
2019-06-07T12:40:57.119Z,61.18
2019-06-07T12:41:45.359Z,60.89
2019-06-07T12:42:47.159Z,60.90
2019-06-07T12:43:46.827Z,60.75
2019-06-07T12:44:51.117Z,61.40
2019-06-07T12:45:48.431Z,60.61
2019-06-07T12:46:49.245Z,59.71
2019-06-07T12:47:49.844Z,59.96
2019-06-07T12:48:50.202Z,60.15
2019-06-07T12:49:51.085Z,60.17
2019-06-07T12:50:51.868Z,60.12
2019-06-07T12:51:51.948Z,59.40
2019-06-07T12:52:53.546Z,59.47
2019-06-07T12:53:53.050Z,59.12
2019-06-07T12:54:54.570Z,58.99
2019-06-07T12:55:55.009Z,58.94